KLRJ/LRJ METAR and TAF weather

Enter ICAO airport designator
Station Type Date Time Source
KLRJ METAR 2022/10/01 07:35 UTC NOAA

KLRJ 010735Z AUTO 15010KT 10SM CLR 16/05 A3008 RMK AO2


Station Type Date Time Source
KLRJ Decoded METAR 2022/10/01 07:35 UTC NOAA

Le Mars, Le Mars Municipal Airport, IA, United States (KLRJ) 42-46-41N 096-11-37W
Oct 01, 2022 - 03:35 AM EDT / 2022.10.01 0735 UTC
Wind: from the SSE (150 degrees) at 12 MPH (10 KT):0
Visibility: 10 mile(s):0
Sky conditions: clear
Temperature: 60 F (16 C)
Dew Point: 41 F (5 C)
Relative Humidity: 47%
Pressure (altimeter): 30.08 in. Hg (1018 hPa)
ob: KLRJ 010735Z AUTO 15010KT 10SM CLR 16/05 A3008 RMK AO2
cycle: 7

Station Type Date Time Source
KLRJ TAF UTC NOAA

Error!

Example: see airport list